Time;durP1;ratioP1;P1;durP2;ratioP2;P2;SDS_P1;SDS_P2;PMS_P1;PMS_P2;Temp;Humidity;BMP_temperature;BMP_pressure;BME280_temperature;BME280_humidity;BME280_pressure;Samples;Min_cycle;Max_cycle;Signal;HPM_P1;HPM_P2
2022/12/11 00:01:53;;;;;;;106.72;26.20;;;;;;;-0.14;100.00;101138.22;5005965;28;20032;-68
2022/12/11 00:04:19;;;;;;;113.35;26.05;;;;;;;-0.15;100.00;101134.75;5006755;28;20033;-68
2022/12/11 00:06:44;;;;;;;97.07;25.33;;;;;;;-0.14;100.00;101138.22;5007738;28;20532;-68
2022/12/11 00:09:10;;;;;;;107.40;26.55;;;;;;;-0.14;100.00;101125.44;5009107;28;20023;-67
2022/12/11 00:11:35;;;;;;;128.40;26.98;;;;;;;-0.15;100.00;101123.63;5006798;28;20253;-67
2022/12/11 00:14:00;;;;;;;121.32;26.95;;;;;;;-0.15;100.00;101128.75;5006935;28;20010;-67
2022/12/11 00:16:26;;;;;;;109.72;25.00;;;;;;;-0.14;100.00;101125.44;5006486;28;20208;-67
2022/12/11 00:18:51;;;;;;;117.68;26.42;;;;;;;-0.13;100.00;101127.19;5008356;28;20048;-68
2022/12/11 00:21:16;;;;;;;116.82;25.70;;;;;;;-0.12;100.00;101127.28;5006694;28;20037;-68
2022/12/11 00:23:42;;;;;;;112.47;26.20;;;;;;;-0.12;100.00;101123.84;5006618;28;20161;-68
2022/12/11 00:26:11;;;;;;;112.72;25.98;;;;;;;-0.11;100.00;101130.75;5006549;28;20049;-67
2022/12/11 00:28:37;;;;;;;108.28;25.70;;;;;;;-0.12;100.00;101124.72;5017938;28;20033;-67
2022/12/11 00:31:04;;;;;;;104.82;26.30;;;;;;;-0.12;100.00;101128.97;5006924;28;20029;-68
2022/12/11 00:33:29;;;;;;;99.35;25.42;;;;;;;-0.12;100.00;101124.72;5006321;28;20081;-67
2022/12/11 00:35:55;;;;;;;107.25;26.58;;;;;;;-0.11;100.00;101123.09;5006577;28;20014;-68
2022/12/11 00:38:20;;;;;;;112.40;25.35;;;;;;;-0.10;100.00;101127.41;5005809;28;20026;-67
2022/12/11 00:40:46;;;;;;;117.90;28.05;;;;;;;-0.10;100.00;101125.75;5006428;28;20069;-68
2022/12/11 00:43:12;;;;;;;105.32;25.52;;;;;;;-0.08;100.00;101125.84;5006266;28;20022;-68
2022/12/11 00:45:40;;;;;;;98.80;25.08;;;;;;;-0.08;100.00;101120.72;5016479;28;20038;-68
2022/12/11 00:48:06;;;;;;;112.63;26.77;;;;;;;-0.06;100.00;101122.63;5006393;28;20026;-63
2022/12/11 00:50:32;;;;;;;96.72;26.10;;;;;;;-0.07;100.00;101122.53;5006150;28;20049;-63
2022/12/11 00:52:58;;;;;;;117.25;27.25;;;;;;;-0.07;100.00;101125.97;5006660;28;20022;-63
2022/12/11 00:55:24;;;;;;;109.80;25.98;;;;;;;-0.05;100.00;101124.38;5016496;28;20022;-63
2022/12/11 00:57:52;;;;;;;103.00;26.27;;;;;;;-0.03;100.00;101124.50;5006148;28;20081;-63
2022/12/11 01:00:18;;;;;;;109.68;27.65;;;;;;;-0.02;100.00;101126.28;5006128;28;20098;-63
2022/12/11 01:02:43;;;;;;;106.55;27.40;;;;;;;-0.01;100.00;101123.81;5006580;28;20092;-63
2022/12/11 01:05:09;;;;;;;112.85;28.13;;;;;;;0.01;100.00;101120.50;5011876;28;20094;-63
2022/12/11 01:07:34;;;;;;;112.40;27.38;;;;;;;0.03;100.00;101119.81;5009692;28;20037;-63
2022/12/11 01:12:43;;;;;;;109.68;26.75;;;;;;;0.07;100.00;101110.66;5005833;28;20028;-64
2022/12/11 01:15:10;;;;;;;108.53;27.58;;;;;;;0.07;100.00;101108.97;5009296;28;20018;-63
2022/12/11 01:17:35;;;;;;;103.30;27.42;;;;;;;0.07;100.00;101110.66;5005659;28;20048;-63
2022/12/11 01:20:01;;;;;;;106.45;26.77;;;;;;;0.07;100.00;101124.34;5004450;28;20010;-63
2022/12/11 01:22:26;;;;;;;91.30;25.80;;;;;;;0.08;100.00;101118.47;5005792;28;20232;-63
2022/12/11 01:24:51;;;;;;;104.03;26.50;;;;;;;0.08;100.00;101122.69;5007867;28;20037;-63
2022/12/11 01:27:16;;;;;;;100.15;27.52;;;;;;;0.07;100.00;101118.34;5005514;28;20034;-62
2022/12/11 01:29:42;;;;;;;106.75;26.92;;;;;;;0.06;100.00;101124.25;5004670;28;20271;-64
2022/12/11 01:32:07;;;;;;;95.18;25.73;;;;;;;0.06;100.00;101131.94;5005345;28;20028;-63
2022/12/11 01:34:32;;;;;;;93.70;26.30;;;;;;;0.05;100.00;101118.25;5006486;28;20022;-63
2022/12/11 01:36:58;;;;;;;84.53;25.90;;;;;;;0.06;100.00;101117.47;5005341;28;20029;-63
2022/12/11 01:39:23;;;;;;;82.35;23.83;;;;;;;0.08;100.00;101123.59;5005311;28;20024;-63
2022/12/11 01:41:48;;;;;;;80.90;23.35;;;;;;;0.10;100.00;101121.13;5005249;28;20090;-63
2022/12/11 01:44:13;;;;;;;91.05;24.35;;;;;;;0.12;100.00;101115.34;5002677;28;20216;-63
2022/12/11 01:46:40;;;;;;;82.35;23.73;;;;;;;0.14;100.00;101124.00;5017968;28;20030;-63
2022/12/11 01:49:09;;;;;;;90.82;24.55;;;;;;;0.15;100.00;101109.53;5005214;28;20014;-63
2022/12/11 01:51:39;;;;;;;;;;;;;;;0.19;100.00;101105.50;5005444;28;20061;-63
2022/12/11 01:54:07;;;;;;;;;;;;;;;0.22;100.00;101103.16;5005584;28;19898;-63
2022/12/11 01:56:35;;;;;;;77.87;21.40;;;;;;;0.21;100.00;101103.94;5016943;28;19971;-68
2022/12/11 01:59:06;;;;;;;92.85;23.10;;;;;;;0.20;100.00;101108.16;5005048;28;20265;-68
2022/12/11 02:01:35;;;;;;;83.85;22.20;;;;;;;0.21;100.00;101096.25;5004928;28;20317;-68
2022/12/11 02:04:01;;;;;;;80.97;24.55;;;;;;;0.23;100.00;101097.25;5004918;28;20144;-68
2022/12/11 02:06:39;;;;;;;78.72;22.98;;;;;;;0.23;100.00;101102.38;5013878;28;20281;-68
2022/12/11 02:09:07;;;;;;;86.40;23.27;;;;;;;0.23;100.00;101093.00;4998701;28;20272;-68
2022/12/11 02:11:51;;;;;;;77.30;21.50;;;;;;;0.26;100.00;101097.44;5004742;28;20018;-67
2022/12/11 02:14:30;;;;;;;78.78;22.85;;;;;;;0.29;100.00;101097.66;5004752;28;20024;-68
2022/12/11 02:17:08;;;;;;;82.90;23.13;;;;;;;0.30;100.00;101095.19;5044708;28;20018;-68
2022/12/11 02:19:45;;;;;;;88.32;24.05;;;;;;;0.31;100.00;101102.13;5004591;28;20025;-68
2022/12/11 02:22:18;;;;;;;87.70;23.33;;;;;;;0.31;100.00;101103.81;5004529;28;20025;-68
2022/12/11 02:25:13;;;;;;;84.25;24.73;;;;;;;0.30;100.00;101107.13;5004296;28;20090;-68
2022/12/11 02:27:56;;;;;;;78.72;24.13;;;;;;;0.30;100.00;101099.44;5002033;28;20340;-63
2022/12/11 02:30:22;;;;;;;72.28;20.80;;;;;;;0.29;100.00;101101.13;5004459;28;20057;-63
2022/12/11 02:32:56;;;;;;;85.32;23.05;;;;;;;0.30;100.00;101102.00;5004440;28;20025;-63
2022/12/11 02:35:27;;;;;;;80.30;23.20;;;;;;;0.28;100.00;101096.78;5008612;28;20306;-63
2022/12/11 02:38:06;;;;;;;80.72;24.40;;;;;;;0.29;100.00;101095.09;5002972;28;20026;-63
2022/12/11 02:40:35;;;;;;;76.07;22.40;;;;;;;0.28;100.00;101090.78;5004319;28;20026;-63
2022/12/11 02:43:05;;;;;;;85.65;22.90;;;;;;;0.29;100.00;101093.44;5004480;28;20056;-63
2022/12/11 02:45:32;;;;;;;79.65;21.63;;;;;;;0.29;100.00;101096.00;5007694;28;20045;-63
2022/12/11 02:48:01;;;;;;;78.85;22.00;;;;;;;0.30;100.00;101096.88;5004551;28;20308;-63
2022/12/11 02:50:28;;;;;;;74.55;21.75;;;;;;;0.31;100.00;101096.13;5004342;28;20022;-63
2022/12/11 02:52:56;;;;;;;74.43;22.67;;;;;;;0.30;100.00;101091.75;5004519;28;20257;-63
2022/12/11 02:55:23;;;;;;;65.97;22.05;;;;;;;0.32;100.00;101093.66;5004788;28;20026;-63
2022/12/11 02:57:58;;;;;;;63.25;21.63;;;;;;;0.35;100.00;101098.09;5000431;28;20033;-68
2022/12/11 03:00:24;;;;;;;77.63;22.48;;;;;;;0.36;100.00;101094.72;5018917;28;20033;-68
2022/12/11 03:02:49;;;;;;;72.50;20.88;;;;;;;0.33;100.00;101086.84;5004315;28;20018;-68
2022/12/11 03:05:14;;;;;;;71.38;20.70;;;;;;;0.34;100.00;101086.06;5005145;28;20024;-68
2022/12/11 03:07:42;;;;;;;68.53;20.23;;;;;;;0.33;100.00;101084.28;5003027;28;20022;-68
2022/12/11 03:10:13;;;;;;;63.70;21.17;;;;;;;0.33;100.00;101079.16;5004331;28;20272;-68
2022/12/11 03:12:43;;;;;;;65.70;19.98;;;;;;;0.35;100.00;101075.03;5004250;28;20025;-68
2022/12/11 03:15:10;;;;;;;;;;;;;;;0.39;100.00;101069.34;5008135;28;20044;-67
2022/12/11 03:17:47;;;;;;;60.50;18.63;;;;;;;0.36;100.00;101070.78;4994624;28;19906;-68
2022/12/11 03:20:36;;;;;;;66.38;19.50;;;;;;;0.35;100.00;101067.34;4993685;28;20027;-68
2022/12/11 03:23:05;;;;;;;48.78;16.63;;;;;;;0.35;100.00;101072.47;4993893;28;20062;-68
2022/12/11 03:25:54;;;;;;;58.38;17.60;;;;;;;0.34;100.00;101069.00;4998366;28;20065;-68
2022/12/11 03:28:43;;;;;;;50.08;16.27;;;;;;;0.34;100.00;101076.69;5003796;28;20347;-68
2022/12/11 03:31:13;;;;;;;49.22;15.85;;;;;;;0.30;100.00;101072.13;5003983;28;20018;-68
2022/12/11 03:33:42;;;;;;;50.50;15.52;;;;;;;0.28;100.00;101071.16;5005254;28;20358;-68
2022/12/11 03:36:16;;;;;;;46.88;15.48;;;;;;;0.26;100.00;101070.19;5013059;28;20165;-68
2022/12/11 03:38:52;;;;;;;46.53;15.43;;;;;;;0.27;100.00;101060.81;5003874;28;20212;-68
2022/12/11 03:41:21;;;;;;;45.45;15.60;;;;;;;0.27;100.00;101063.38;5003824;28;20018;-68
2022/12/11 03:43:50;;;;;;;46.15;14.77;;;;;;;0.29;100.00;101067.81;5005307;28;20021;-68
2022/12/11 03:46:18;;;;;;;44.20;13.85;;;;;;;0.30;100.00;101068.69;5011133;28;20033;-68
2022/12/11 03:48:46;;;;;;;42.00;14.68;;;;;;;0.27;100.00;101059.13;5003863;28;20296;-68
2022/12/11 03:51:12;;;;;;;42.88;14.07;;;;;;;0.27;100.00;101063.38;5003779;28;20017;-68
2022/12/11 03:53:38;;;;;;;41.97;14.43;;;;;;;0.27;100.00;101058.25;5006665;28;20022;-68
2022/12/11 03:56:07;;;;;;;40.90;14.60;;;;;;;0.26;100.00;101054.78;5015106;28;20029;-68
2022/12/11 03:58:32;;;;;;;43.63;14.73;;;;;;;0.28;100.00;101054.91;4998540;28;20033;-63
2022/12/11 04:00:58;;;;;;;42.22;14.88;;;;;;;0.29;100.00;101052.44;5003108;28;20026;-63
2022/12/11 04:03:23;;;;;;;36.70;13.93;;;;;;;0.31;100.00;101049.97;5007047;28;20026;-63
2022/12/11 04:05:54;;;;;;;43.47;15.35;;;;;;;0.33;100.00;101050.97;5013949;28;20097;-63
2022/12/11 04:08:20;;;;;;;42.60;13.93;;;;;;;0.33;100.00;101049.31;5006872;28;20030;-63
2022/12/11 04:10:46;;;;;;;43.75;14.45;;;;;;;0.34;100.00;101045.94;5007102;28;20277;-63
2022/12/11 04:13:11;;;;;;;40.80;13.88;;;;;;;0.37;100.00;101047.81;5006939;28;20022;-63
2022/12/11 04:15:38;;;;;;;39.83;14.02;;;;;;;0.37;100.00;101039.25;5010788;28;20265;-63
2022/12/11 04:26:20;;;;;;;42.53;15.10;;;;;;;0.41;100.00;101046.38;5003096;28;20036;-63
2022/12/11 04:28:47;;;;;;;41.55;13.93;;;;;;;0.41;100.00;101052.38;5006630;28;20042;-64
2022/12/11 04:31:16;;;;;;;45.92;14.88;;;;;;;0.42;100.00;101053.25;5006376;28;20026;-63
2022/12/11 04:33:42;;;;;;;42.38;15.07;;;;;;;0.41;100.00;101047.25;5006491;28;20069;-64
2022/12/11 04:36:08;;;;;;;37.53;13.63;;;;;;;0.38;100.00;101035.88;5009268;28;20062;-63
2022/12/11 04:38:34;;;;;;;40.92;14.35;;;;;;;0.38;100.00;101039.38;5006536;28;20224;-63
2022/12/11 04:41:03;;;;;;;40.70;14.35;;;;;;;0.39;100.00;101042.81;5006293;28;20022;-64
2022/12/11 04:43:28;;;;;;;43.47;14.32;;;;;;;0.38;100.00;101041.00;5006285;28;20029;-64
2022/12/11 04:46:01;;;;;;;37.00;14.02;;;;;;;0.38;100.00;101039.38;5007380;28;20026;-63
2022/12/11 04:48:26;;;;;;;41.42;14.07;;;;;;;0.39;100.00;101037.69;5006167;28;20027;-63
2022/12/11 04:50:52;;;;;;;39.67;14.23;;;;;;;0.41;100.00;101038.69;5006299;28;20022;-63
2022/12/11 04:53:17;;;;;;;38.40;13.95;;;;;;;0.43;100.00;101039.66;5006514;28;20026;-63
2022/12/11 04:55:42;;;;;;;40.30;14.70;;;;;;;0.41;100.00;101036.13;5006425;28;20273;-63
2022/12/11 04:58:07;;;;;;;41.03;14.82;;;;;;;0.39;100.00;101036.03;5001029;28;20018;-68
2022/12/11 05:00:33;;;;;;;38.35;13.82;;;;;;;0.38;100.00;101035.88;5002222;28;20026;-68
2022/12/11 05:02:58;;;;;;;43.20;14.32;;;;;;;0.36;100.00;101035.78;5005834;28;20243;-68
2022/12/11 05:05:23;;;;;;;43.25;14.30;;;;;;;0.35;100.00;101031.47;5013138;28;20022;-68
2022/12/11 05:07:49;;;;;;;44.65;15.25;;;;;;;0.36;100.00;101033.22;5014900;28;20277;-68
2022/12/11 05:10:14;;;;;;;39.58;14.07;;;;;;;0.36;100.00;101033.22;5005756;28;20018;-68
2022/12/11 05:12:39;;;;;;;45.03;15.27;;;;;;;0.37;100.00;101029.88;5005763;28;20017;-68
2022/12/11 05:15:05;;;;;;;41.53;14.73;;;;;;;0.36;100.00;101035.78;5011831;28;20168;-68
2022/12/11 05:17:30;;;;;;;42.38;14.55;;;;;;;0.36;100.00;101037.47;5014498;28;20014;-68
2022/12/11 05:19:56;;;;;;;43.22;13.93;;;;;;;0.34;100.00;101035.69;5005663;28;20021;-68
2022/12/11 05:22:21;;;;;;;42.22;14.55;;;;;;;0.33;100.00;101030.47;5005410;28;20216;-68
2022/12/11 05:24:46;;;;;;;40.25;14.35;;;;;;;0.33;99.77;101030.47;5006392;28;20029;-68
2022/12/11 05:27:11;;;;;;;38.60;15.00;;;;;;;0.35;99.98;101026.34;5009743;28;20018;-68
2022/12/11 05:29:37;;;;;;;40.28;14.45;;;;;;;0.39;100.00;101022.28;5005552;28;20038;-68
2022/12/11 05:32:03;;;;;;;40.85;15.07;;;;;;;0.39;100.00;101017.16;5005358;28;20153;-68
2022/12/11 05:34:29;;;;;;;40.75;14.50;;;;;;;0.39;100.00;101025.78;5005401;28;20034;-68
2022/12/11 05:36:54;;;;;;;39.58;15.02;;;;;;;0.41;99.75;101019.06;5011353;28;20173;-68
2022/12/11 05:39:19;;;;;;;38.60;14.43;;;;;;;0.42;99.52;101013.16;5005280;28;20172;-68
2022/12/11 05:41:45;;;;;;;40.55;14.93;;;;;;;0.43;99.82;101011.47;5005365;28;20030;-68
2022/12/11 05:44:12;;;;;;;42.55;14.63;;;;;;;0.43;99.91;101014.03;5004877;28;20062;-68
2022/12/11 05:46:38;;;;;;;42.90;14.68;;;;;;;0.42;99.24;101015.72;5013553;28;20034;-68
2022/12/11 05:49:03;;;;;;;41.28;14.43;;;;;;;0.41;99.14;101019.06;5006183;28;20029;-68
2022/12/11 05:51:29;;;;;;;41.83;14.25;;;;;;;0.39;99.28;101017.16;5005100;28;20018;-68
2022/12/11 05:53:56;;;;;;;37.25;13.30;;;;;;;0.38;98.41;101023.06;5005187;28;20042;-68
2022/12/11 05:56:26;;;;;;;40.88;14.52;;;;;;;0.36;98.80;101020.41;5006175;28;20069;-68
2022/12/11 05:58:53;;;;;;;42.67;14.90;;;;;;;0.37;98.63;101024.75;5005011;28;20034;-68
2022/12/11 06:01:23;;;;;;;35.83;13.07;;;;;;;0.38;98.61;101026.53;5005024;28;20022;-68
2022/12/11 06:03:48;;;;;;;33.05;13.45;;;;;;;0.42;98.90;101030.19;5005725;28;20065;-68
2022/12/11 06:06:14;;;;;;;38.72;13.07;;;;;;;0.42;98.75;101032.75;5015520;28;20089;-68
2022/12/11 06:08:40;;;;;;;36.63;13.02;;;;;;;0.41;98.72;101034.44;5006820;28;20093;-68
2022/12/11 06:11:05;;;;;;;37.35;13.77;;;;;;;0.41;98.63;101024.19;5004835;28;20181;-68
2022/12/11 06:13:31;;;;;;;36.20;13.68;;;;;;;0.43;98.49;101025.16;5004763;28;20279;-68
2022/12/11 06:16:05;;;;;;;37.13;12.98;;;;;;;0.43;98.68;101025.16;5004457;28;20217;-68
2022/12/11 06:18:30;;;;;;;40.22;13.60;;;;;;;0.44;99.45;101026.94;5004694;28;20014;-68
2022/12/11 06:20:55;;;;;;;41.00;14.02;;;;;;;0.46;99.39;101022.81;5004996;28;20025;-68
2022/12/11 06:23:21;;;;;;;35.35;12.10;;;;;;;0.46;99.04;101020.22;5005960;28;20018;-68
2022/12/11 06:25:46;;;;;;;36.67;13.32;;;;;;;0.45;98.75;101030.38;5018929;28;20013;-68
2022/12/11 06:28:12;;;;;;;40.35;13.32;;;;;;;0.42;99.11;101022.50;5008142;28;20026;-68
2022/12/11 06:30:37;;;;;;;35.75;13.10;;;;;;;0.42;98.96;101027.63;5004468;28;20034;-68
2022/12/11 06:33:02;;;;;;;36.47;13.50;;;;;;;0.43;98.71;101027.72;5004006;28;20018;-68
2022/12/11 06:35:28;;;;;;;39.88;13.68;;;;;;;0.43;98.41;101020.03;5020405;28;20014;-68
2022/12/11 06:37:53;;;;;;;39.28;13.93;;;;;;;0.42;98.63;101023.41;5009792;28;20165;-67
2022/12/11 06:40:18;;;;;;;36.67;13.48;;;;;;;0.44;98.88;101021.81;5004269;28;20029;-68
2022/12/11 06:42:44;;;;;;;37.13;13.10;;;;;;;0.45;98.41;101021.03;5004342;28;20022;-68
2022/12/11 06:45:09;;;;;;;33.17;12.27;;;;;;;0.47;98.47;101023.72;5005911;28;20184;-68
2022/12/11 06:47:35;;;;;;;36.63;13.57;;;;;;;0.44;98.11;101024.38;5011546;28;20018;-68
2022/12/11 06:50:01;;;;;;;33.08;12.35;;;;;;;0.44;98.57;101013.25;5004347;28;20042;-68
2022/12/11 06:52:26;;;;;;;33.65;12.50;;;;;;;0.43;98.75;101021.72;5004323;28;20018;-68
2022/12/11 06:54:52;;;;;;;36.90;13.10;;;;;;;0.42;98.60;101018.28;5004167;28;20220;-68
2022/12/11 06:57:18;;;;;;;34.63;12.73;;;;;;;0.42;98.11;101014.81;5008701;28;20097;-63
2022/12/11 06:59:43;;;;;;;35.25;13.35;;;;;;;0.40;98.75;101014.72;4991756;28;20092;-63
2022/12/11 07:02:13;;;;;;;37.72;13.77;;;;;;;0.41;98.05;101010.50;5013215;28;20265;-63
2022/12/11 07:04:40;;;;;;;36.15;13.45;;;;;;;0.40;98.25;101014.72;5004079;28;20082;-63
2022/12/11 07:07:06;;;;;;;35.50;13.15;;;;;;;0.39;98.28;101018.06;5010534;28;20315;-63
2022/12/11 07:09:31;;;;;;;35.50;13.55;;;;;;;0.40;97.11;101018.97;5003967;28;20045;-63
2022/12/11 07:11:57;;;;;;;35.85;12.50;;;;;;;0.40;97.14;101024.09;5004061;28;20265;-64
2022/12/11 07:14:22;;;;;;;36.22;13.38;;;;;;;0.39;98.46;101023.22;5003951;28;20329;-63
2022/12/11 07:16:47;;;;;;;36.88;12.68;;;;;;;0.39;98.75;101023.22;5010233;28;20036;-64
2022/12/11 07:19:12;;;;;;;35.53;12.50;;;;;;;0.41;98.45;101031.88;5003895;28;20276;-64
2022/12/11 07:21:38;;;;;;;39.53;13.48;;;;;;;0.43;98.04;101030.28;5004181;28;20014;-63
2022/12/11 07:24:03;;;;;;;37.22;13.85;;;;;;;0.43;98.21;101032.84;5003605;28;20275;-63
2022/12/11 07:26:29;;;;;;;38.22;12.93;;;;;;;0.43;97.84;101039.66;5007478;28;20033;-63
2022/12/11 07:28:58;;;;;;;34.28;12.77;;;;;;;0.44;98.42;101041.44;5010319;28;20357;-63
2022/12/11 07:31:25;;;;;;;35.92;13.73;;;;;;;0.44;97.89;101047.47;4994485;28;20146;-63
2022/12/11 07:33:59;;;;;;;36.00;13.23;;;;;;;0.44;97.70;101042.31;5007686;28;20045;-63
2022/12/11 07:36:25;;;;;;;37.30;13.82;;;;;;;0.44;97.76;101044.00;5008318;28;20041;-63
2022/12/11 07:38:51;;;;;;;39.85;14.13;;;;;;;0.42;97.07;101043.00;5007581;28;20242;-63
2022/12/11 07:41:17;;;;;;;36.50;12.15;;;;;;;0.44;96.89;101038.88;5007477;28;20217;-63
2022/12/11 07:43:43;;;;;;;37.83;13.02;;;;;;;0.43;96.86;101043.09;5007388;28;20025;-63
2022/12/11 07:46:15;;;;;;;39.20;14.30;;;;;;;0.42;97.77;101048.13;5012149;28;20047;-63
2022/12/11 07:48:42;;;;;;;35.42;13.65;;;;;;;0.42;96.90;101040.44;5014252;28;20161;-63
2022/12/11 07:51:08;;;;;;;42.95;14.32;;;;;;;0.41;97.57;101043.81;5007293;28;20026;-63
2022/12/11 07:53:33;;;;;;;39.50;13.63;;;;;;;0.39;98.18;101036.03;5007796;28;20220;-63
2022/12/11 07:55:58;;;;;;;37.30;13.27;;;;;;;0.39;97.69;101036.03;5019417;28;20192;-63
2022/12/11 07:58:23;;;;;;;32.78;12.02;;;;;;;0.39;97.43;101040.25;5004748;28;20026;-67
2022/12/11 08:00:49;;;;;;;36.45;13.65;;;;;;;0.38;97.62;101047.06;5005904;28;20022;-67
2022/12/11 08:03:14;;;;;;;35.60;13.65;;;;;;;0.38;96.98;101038.44;5007094;28;20038;-67
2022/12/11 08:05:39;;;;;;;34.65;13.40;;;;;;;0.37;98.11;101036.69;5015209;28;20052;-68
2022/12/11 08:08:04;;;;;;;37.53;12.63;;;;;;;0.38;98.24;101041.94;5007078;28;20061;-67
2022/12/11 08:10:30;;;;;;;37.33;13.75;;;;;;;0.39;97.73;101040.25;5006999;28;20086;-67
2022/12/11 08:12:55;;;;;;;39.20;14.45;;;;;;;0.36;97.45;101046.03;5007022;28;20026;-68
2022/12/11 08:15:20;;;;;;;37.60;14.32;;;;;;;0.35;97.98;101044.28;5015323;28;20264;-67
2022/12/11 08:17:46;;;;;;;47.15;14.73;;;;;;;0.34;98.37;101045.06;5016630;28;20064;-68
2022/12/11 08:20:11;;;;;;;37.75;14.27;;;;;;;0.34;98.19;101030.56;5022776;28;20235;-68
2022/12/11 08:22:36;;;;;;;41.15;14.43;;;;;;;0.34;97.91;101034.81;5006605;28;20021;-67
2022/12/11 08:25:02;;;;;;;42.85;15.07;;;;;;;0.33;97.85;101035.59;5006678;28;20014;-67
2022/12/11 08:27:27;;;;;;;40.45;14.35;;;;;;;0.33;97.68;101039.06;5002088;28;20312;-63
2022/12/11 08:29:52;;;;;;;44.67;14.52;;;;;;;0.32;98.39;101036.38;5010258;28;20030;-63
2022/12/11 08:32:18;;;;;;;43.30;15.52;;;;;;;0.31;98.15;101044.84;5010315;28;20026;-63
2022/12/11 08:34:43;;;;;;;38.65;12.73;;;;;;;0.30;97.98;101043.06;5006525;28;20030;-64
2022/12/11 08:37:08;;;;;;;41.08;16.08;;;;;;;0.31;98.44;101040.59;5007436;28;20035;-63
2022/12/11 08:39:34;;;;;;;37.45;14.52;;;;;;;0.32;97.92;101038.94;5014923;28;20046;-63
2022/12/11 08:41:59;;;;;;;36.75;13.70;;;;;;;0.33;98.50;101049.31;5006479;28;20265;-64
2022/12/11 08:44:25;;;;;;;38.85;14.10;;;;;;;0.35;98.40;101041.72;5006161;28;20038;-64
2022/12/11 08:46:51;;;;;;;43.38;14.18;;;;;;;0.36;98.18;101043.47;5006513;28;20050;-63
2022/12/11 08:49:17;;;;;;;37.80;14.18;;;;;;;0.37;98.34;101042.69;5015940;28;20033;-64
2022/12/11 08:51:42;;;;;;;40.78;14.43;;;;;;;0.38;98.20;101047.06;5006682;28;20014;-63
2022/12/11 08:54:08;;;;;;;34.78;13.60;;;;;;;0.38;97.48;101036.78;5006321;28;20026;-63
2022/12/11 08:56:34;;;;;;;41.67;14.77;;;;;;;0.39;98.14;101033.47;5005729;28;20093;-67
2022/12/11 08:59:00;;;;;;;39.85;14.50;;;;;;;0.39;98.71;101023.22;5007930;28;20060;-67
2022/12/11 09:01:26;;;;;;;38.95;14.05;;;;;;;0.40;97.93;101035.22;5006006;28;20173;-67
2022/12/11 09:03:53;;;;;;;40.28;14.18;;;;;;;0.40;97.52;101029.22;5006248;28;20316;-67
2022/12/11 09:06:21;;;;;;;42.00;14.18;;;;;;;0.42;98.04;101035.31;5015187;28;20188;-68
2022/12/11 09:08:48;;;;;;;36.77;14.73;;;;;;;0.41;98.03;101031.88;5011566;28;20025;-67
2022/12/11 09:11:17;;;;;;;39.97;14.57;;;;;;;0.40;97.58;101032.66;5014377;28;20005;-67
2022/12/11 09:13:44;;;;;;;39.28;14.20;;;;;;;0.41;98.26;101029.31;5005793;28;20022;-67
2022/12/11 09:16:15;;;;;;;37.90;15.05;;;;;;;0.40;98.15;101030.09;5005854;28;20172;-68
2022/12/11 09:18:41;;;;;;;41.10;13.80;;;;;;;0.40;97.73;101027.53;5005709;28;20018;-67
2022/12/11 09:21:10;;;;;;;42.15;14.45;;;;;;;0.40;97.77;101019.84;5006754;28;20022;-67
2022/12/11 09:23:36;;;;;;;34.28;12.82;;;;;;;0.40;98.12;101030.09;5005685;28;20033;-67
2022/12/11 09:26:13;;;;;;;39.28;14.50;;;;;;;0.40;97.80;101032.66;5005295;28;20010;-67
2022/12/11 09:28:40;;;;;;;39.92;14.05;;;;;;;0.38;97.53;101036.78;5005485;28;20030;-67
2022/12/11 09:31:17;;;;;;;42.35;14.80;;;;;;;0.39;97.25;101027.41;5006166;28;20053;-67
2022/12/11 09:33:44;;;;;;;40.58;14.18;;;;;;;0.38;97.81;101031.66;5018070;28;20073;-67
2022/12/11 09:36:10;;;;;;;36.65;13.77;;;;;;;0.39;98.28;101033.47;5009229;28;20049;-67
2022/12/11 09:38:36;;;;;;;41.63;15.00;;;;;;;0.39;97.99;101025.78;5005560;28;20018;-67
2022/12/11 09:41:15;;;;;;;38.55;14.95;;;;;;;0.41;98.17;101025.88;5005327;28;20022;-67
2022/12/11 09:43:47;;;;;;;39.08;14.52;;;;;;;0.43;97.91;101021.72;5013899;28;20034;-67
2022/12/11 09:46:16;;;;;;;42.95;15.43;;;;;;;0.41;97.94;101024.19;5004958;28;20030;-67
2022/12/11 09:48:44;;;;;;;42.65;14.98;;;;;;;0.42;97.11;101023.41;5004540;28;20264;-67
2022/12/11 09:51:34;;;;;;;39.83;15.70;;;;;;;0.43;97.73;101029.41;5006711;28;20050;-67
2022/12/11 09:54:02;;;;;;;44.72;14.52;;;;;;;0.42;98.37;101019.94;5005035;28;20029;-67
2022/12/11 09:56:41;;;;;;;41.28;14.32;;;;;;;0.41;97.47;101025.88;5004897;28;20087;-63
2022/12/11 09:59:35;;;;;;;44.50;15.35;;;;;;;0.39;97.44;101023.22;4999142;28;21202;-63
2022/12/11 10:02:39;;;;;;;42.42;14.30;;;;;;;0.40;97.90;101018.97;5004832;28;20014;-63
2022/12/11 10:05:21;;;;;;;41.97;14.80;;;;;;;0.39;97.23;101012.03;4996618;28;20034;-64
2022/12/11 10:08:11;;;;;;;42.35;15.63;;;;;;;0.38;97.11;101016.28;5005069;28;20033;-64
2022/12/11 10:10:53;;;;;;;39.08;15.38;;;;;;;0.39;98.03;101017.16;5004475;28;20068;-63
2022/12/11 10:13:50;;;;;;;42.55;15.57;;;;;;;0.39;97.94;101005.25;5007055;28;20196;-63
2022/12/11 10:16:34;;;;;;;41.97;14.43;;;;;;;0.40;98.38;101012.16;5004746;28;20018;-63
2022/12/11 10:18:59;;;;;;;38.30;14.95;;;;;;;0.42;97.54;101020.84;5004605;28;20026;-63
2022/12/11 10:21:25;;;;;;;43.00;14.48;;;;;;;0.42;97.66;101019.94;5014508;28;20025;-63
2022/12/11 10:24:01;;;;;;;36.15;13.80;;;;;;;0.44;98.00;101020.94;5004316;28;20019;-63
2022/12/11 10:26:28;;;;;;;38.35;13.57;;;;;;;0.45;97.96;101015.00;5004338;28;20026;-67
2022/12/11 10:28:59;;;;;;;38.90;15.18;;;;;;;0.46;97.47;101015.09;4993172;28;20019;-67
2022/12/11 10:31:45;;;;;;;40.13;13.80;;;;;;;0.48;98.28;101016.13;4994066;28;20165;-67
2022/12/11 10:34:13;;;;;;;36.67;13.70;;;;;;;0.48;97.61;101013.56;5006514;28;20030;-67
2022/12/11 10:36:40;;;;;;;41.13;14.63;;;;;;;0.49;96.71;101009.31;5013269;28;20032;-67
2022/12/11 10:39:18;;;;;;;40.72;14.23;;;;;;;0.48;97.92;101012.69;5004368;28;20014;-67
2022/12/11 10:41:45;;;;;;;37.60;13.15;;;;;;;0.49;97.85;101015.34;5004218;28;20026;-67
2022/12/11 10:44:22;;;;;;;39.63;14.63;;;;;;;0.48;97.69;101008.44;5005296;28;20037;-67
2022/12/11 10:47:03;;;;;;;35.85;13.30;;;;;;;0.48;97.18;101005.88;5010480;28;20279;-67
2022/12/11 10:49:32;;;;;;;37.45;14.30;;;;;;;0.50;98.07;101009.41;5004205;28;20248;-67
2022/12/11 10:52:00;;;;;;;38.90;13.20;;;;;;;0.51;97.97;101003.50;5004160;28;20026;-67
2022/12/11 10:54:34;;;;;;;38.45;13.93;;;;;;;0.52;98.52;100999.25;5007448;28;20002;-67
2022/12/11 10:57:02;;;;;;;38.28;13.50;;;;;;;0.50;97.32;100991.47;5008088;28;20042;-67
2022/12/11 10:59:38;;;;;;;35.63;13.93;;;;;;;0.50;97.31;100990.59;5004103;28;20026;-67
2022/12/11 11:02:05;;;;;;;40.28;13.55;;;;;;;0.50;97.54;100981.22;5006910;28;20010;-67
2022/12/11 11:04:35;;;;;;;40.55;14.23;;;;;;;0.52;97.43;100982.22;5010637;28;20030;-67
2022/12/11 11:07:10;;;;;;;37.30;13.70;;;;;;;0.53;97.88;100985.66;5011053;28;20261;-67
2022/12/11 11:09:35;;;;;;;35.22;13.35;;;;;;;0.53;97.05;100977.97;5008106;28;20046;-67
2022/12/11 11:12:01;;;;;;;37.42;14.70;;;;;;;0.53;97.02;100985.66;5006780;28;20025;-67
2022/12/11 11:14:27;;;;;;;36.63;13.00;;;;;;;0.54;97.44;100989.09;5010712;28;20265;-67
2022/12/11 11:16:55;;;;;;;36.08;13.85;;;;;;;0.54;96.70;100987.44;5013896;28;20081;-67
2022/12/11 11:19:35;;;;;;;39.40;14.70;;;;;;;0.56;97.15;100988.41;5007872;28;20046;-67
2022/12/11 11:22:05;;;;;;;;;;;;;;;0.62;97.56;100985.38;5008217;28;20034;-67
2022/12/11 11:24:38;;;;;;;35.38;13.57;;;;;;;0.60;96.64;100984.41;5010487;28;20218;-67
2022/12/11 11:27:32;;;;;;;40.92;14.80;;;;;;;0.62;97.10;100985.38;5005978;28;20277;-63
2022/12/11 11:30:02;;;;;;;37.65;13.93;;;;;;;0.62;96.39;100988.84;4996777;28;20102;-63